Current | Forecast
Updated: 10:45 AM CEST on April 20, 2018
Observed at Pecs, Hungary
Temperature 20°C
Humidity 40%
Dew Point 6°C
Wind ENE at 17 km/h
Pressure 1026 hPa (Steady)
Conditions Clear
Visibility -
UV N/A
Clouds
Yesterday's Maximum 23°C
Yesterday's Minimum 19°C approx.
Yesterday's Cooling Degree Days 5 approx.
Sunrise5:52 AM CEST
Sunset7:42 PM CEST
Moon Rise9:08 AM CEST
Moon Set
Moon PhaseMoon Phase
Waxing Crescent
Raw METARMETAR LHPP 200845Z 07009KT CAVOK 20/06 Q1026


Monday
. High: 69° F.
Tuesday
. High: 75° F.
Wednesday
. High: 80° F.
Thursday
. High: 77° F.
Friday
. High: 66° F.
Saturday
. High: 69° F.
Sunday
. High: 73° F.
Monday
. High: 71° F.

Units: English | Metric

Find the Weather for any City, State or Zipcode, or Country:

U.S. State List | Severe Weather | Tropical Storms | Ski Conditions
United States | Canada | Central America | South America | Asia | Europe | Australia | Africa | Islands

Weather Underground

© Copyright 2018
The Weather Company, LLC